Time;durP1;ratioP1;P1;durP2;ratioP2;P2;SDS_P1;SDS_P2;PMS_P1;PMS_P2;Temp;Humidity;BMP_temperature;BMP_pressure;BME280_temperature;BME280_humidity;BME280_pressure;Samples;Min_cycle;Max_cycle;Signal;HPM_P1;HPM_P2
2022/08/02 00:02:20;;;;;;;5.30;2.90;;;;;;;;;;5054415;28;20658;-53
2022/08/02 00:04:46;;;;;;;5.13;2.90;;;;;;;;;;5054657;28;20275;-53
2022/08/02 00:07:13;;;;;;;7.90;3.30;;;;;;;;;;5054435;28;20200;-53
2022/08/02 00:09:39;;;;;;;7.10;3.17;;;;;;;;;;5054362;28;20716;-53
2022/08/02 00:12:06;;;;;;;10.10;3.50;;;;;;;;;;5054295;28;20208;-53
2022/08/02 00:14:32;;;;;;;6.77;3.13;;;;;;;;;;5054475;28;20345;-53
2022/08/02 00:16:58;;;;;;;8.27;3.23;;;;;;;;;;5054314;28;20212;-53
2022/08/02 00:19:25;;;;;;;8.13;3.03;;;;;;;;;;5054169;28;20438;-53
2022/08/02 00:21:51;;;;;;;6.73;2.80;;;;;;;;;;5053574;28;20204;-53
2022/08/02 00:24:17;;;;;;;5.13;3.27;;;;;;;;;;5054062;28;20200;-53
2022/08/02 00:26:43;;;;;;;6.10;3.10;;;;;;;;;;5054115;28;20662;-53
2022/08/02 00:29:09;;;;;;;6.50;3.27;;;;;;;;;;5053882;28;20226;-53
2022/08/02 00:31:35;;;;;;;7.67;3.10;;;;;;;;;;5053906;28;20200;-53
2022/08/02 00:34:01;;;;;;;10.77;3.20;;;;;;;;;;5053946;28;20265;-53
2022/08/02 00:36:28;;;;;;;8.53;3.80;;;;;;;;;;5053803;28;20694;-54
2022/08/02 00:38:54;;;;;;;7.73;3.33;;;;;;;;;;5053789;28;20575;-53
2022/08/02 00:41:21;;;;;;;5.50;3.10;;;;;;;;;;5053650;28;20700;-53
2022/08/02 00:43:48;;;;;;;9.50;3.20;;;;;;;;;;5053599;28;20660;-54
2022/08/02 00:46:14;;;;;;;7.03;3.60;;;;;;;;;;5053739;28;20208;-53
2022/08/02 00:48:40;;;;;;;7.30;3.20;;;;;;;;;;5053721;28;20203;-54
2022/08/02 00:51:06;;;;;;;9.63;3.40;;;;;;;;;;5053481;28;20242;-54
2022/08/02 00:53:33;;;;;;;8.30;3.07;;;;;;;;;;5053640;28;20207;-54
2022/08/02 00:55:59;;;;;;;5.97;3.23;;;;;;;;;;5053501;28;20234;-54
2022/08/02 00:58:26;;;;;;;7.13;3.30;;;;;;;;;;5053546;28;20196;-54
2022/08/02 01:00:52;;;;;;;5.07;3.37;;;;;;;;;;5053372;28;20722;-53
2022/08/02 01:03:17;;;;;;;6.17;3.07;;;;;;;;;;5053267;28;20295;-54
2022/08/02 01:05:44;;;;;;;3.50;2.93;;;;;;;;;;5053404;28;20198;-54
2022/08/02 01:08:10;;;;;;;7.77;3.37;;;;;;;;;;5053144;28;20659;-53
2022/08/02 01:10:37;;;;;;;3.40;3.10;;;;;;;;;;5053304;28;20576;-54
2022/08/02 01:13:03;;;;;;;4.23;2.90;;;;;;;;;;5053175;28;20200;-53
2022/08/02 01:15:29;;;;;;;6.30;2.90;;;;;;;;;;5053245;28;20323;-55
2022/08/02 01:18:00;;;;;;;6.20;3.10;;;;;;;;;;5052966;28;20200;-54
2022/08/02 01:20:49;;;;;;;8.03;3.53;;;;;;;;;;5053009;28;20224;-54
2022/08/02 01:23:25;;;;;;;7.23;3.63;;;;;;;;;;5053063;28;20204;-54
2022/08/02 01:26:01;;;;;;;5.43;3.40;;;;;;;;;;5053004;28;20242;-54
2022/08/02 01:28:32;;;;;;;8.03;3.27;;;;;;;;;;5052879;28;20218;-54
2022/08/02 01:31:00;;;;;;;7.77;2.90;;;;;;;;;;5052765;28;20207;-54
2022/08/02 01:33:28;;;;;;;7.30;3.33;;;;;;;;;;5051576;28;20196;-54
2022/08/02 01:35:56;;;;;;;4.20;3.20;;;;;;;;;;5052671;28;20289;-54
2022/08/02 01:38:26;;;;;;;4.43;2.80;;;;;;;;;;5052687;28;20211;-53
2022/08/02 01:40:53;;;;;;;4.70;3.30;;;;;;;;;;5052672;28;20295;-54
2022/08/02 01:43:20;;;;;;;5.13;3.13;;;;;;;;;;5052354;28;20271;-54
2022/08/02 01:45:48;;;;;;;4.20;3.13;;;;;;;;;;5052711;28;20208;-54
2022/08/02 01:48:15;;;;;;;5.43;2.83;;;;;;;;;;5052479;28;20252;-54
2022/08/02 01:50:42;;;;;;;4.00;3.13;;;;;;;;;;5052426;28;20219;-54
2022/08/02 01:53:09;;;;;;;6.50;3.40;;;;;;;;;;5052368;28;20207;-54
2022/08/02 01:55:39;;;;;;;6.60;3.30;;;;;;;;;;5052296;28;20304;-54
2022/08/02 01:58:06;;;;;;;4.13;3.03;;;;;;;;;;5052255;28;20203;-54
2022/08/02 02:00:34;;;;;;;6.23;3.40;;;;;;;;;;5052418;28;20200;-54
2022/08/02 02:03:02;;;;;;;5.27;3.43;;;;;;;;;;5052348;28;20196;-54
2022/08/02 02:05:29;;;;;;;8.03;3.47;;;;;;;;;;5052248;28;20275;-54
2022/08/02 02:07:57;;;;;;;5.33;3.20;;;;;;;;;;5052040;28;20619;-54
2022/08/02 02:10:24;;;;;;;4.13;3.47;;;;;;;;;;5052037;28;20203;-53
2022/08/02 02:12:51;;;;;;;6.10;3.30;;;;;;;;;;5051986;28;20716;-54
2022/08/02 02:15:17;;;;;;;5.30;3.17;;;;;;;;;;5051950;28;20807;-54
2022/08/02 02:17:45;;;;;;;4.63;3.43;;;;;;;;;;5052024;28;20206;-54
2022/08/02 02:20:14;;;;;;;5.63;3.30;;;;;;;;;;5051865;28;20204;-54
2022/08/02 02:22:40;;;;;;;5.23;3.37;;;;;;;;;;5051920;28;20295;-54
2022/08/02 02:25:07;;;;;;;7.30;3.10;;;;;;;;;;5051825;28;20203;-54
2022/08/02 02:27:34;;;;;;;4.67;3.03;;;;;;;;;;5051974;28;20199;-54
2022/08/02 02:30:00;;;;;;;6.30;3.67;;;;;;;;;;5051918;28;20193;-54
2022/08/02 02:32:27;;;;;;;10.07;4.10;;;;;;;;;;5051964;28;20204;-54
2022/08/02 02:34:55;;;;;;;3.67;3.33;;;;;;;;;;5051935;28;20220;-54
2022/08/02 02:37:23;;;;;;;4.03;3.57;;;;;;;;;;5051518;28;20200;-53
2022/08/02 02:39:50;;;;;;;4.60;3.37;;;;;;;;;;5051669;28;20208;-54
2022/08/02 02:42:18;;;;;;;11.70;3.97;;;;;;;;;;5051704;28;20199;-53
2022/08/02 02:44:45;;;;;;;6.17;3.60;;;;;;;;;;5051294;28;20248;-53
2022/08/02 02:47:12;;;;;;;6.80;3.73;;;;;;;;;;5051418;28;20203;-54
2022/08/02 02:49:39;;;;;;;4.33;3.17;;;;;;;;;;5051603;28;20204;-54
2022/08/02 02:52:05;;;;;;;7.13;3.13;;;;;;;;;;5051409;28;20734;-54
2022/08/02 02:54:33;;;;;;;5.57;3.40;;;;;;;;;;5051646;28;20250;-54
2022/08/02 02:57:00;;;;;;;4.60;3.40;;;;;;;;;;5051624;28;20200;-53
2022/08/02 02:59:27;;;;;;;5.53;3.13;;;;;;;;;;5051449;28;20220;-53
2022/08/02 03:01:53;;;;;;;6.30;3.27;;;;;;;;;;5051510;28;20215;-53
2022/08/02 03:04:20;;;;;;;3.20;2.90;;;;;;;;;;5051386;28;20243;-53
2022/08/02 03:06:46;;;;;;;3.80;2.80;;;;;;;;;;5051637;28;20200;-53
2022/08/02 03:09:12;;;;;;;5.27;3.20;;;;;;;;;;5051370;28;20203;-54
2022/08/02 03:11:40;;;;;;;4.83;3.30;;;;;;;;;;5051467;28;20287;-54
2022/08/02 03:14:08;;;;;;;5.73;3.30;;;;;;;;;;5051312;28;20200;-54
2022/08/02 03:16:41;;;;;;;4.53;3.10;;;;;;;;;;5051128;28;20678;-54
2022/08/02 03:19:06;;;;;;;4.83;3.13;;;;;;;;;;5051230;28;20854;-54
2022/08/02 03:21:32;;;;;;;5.47;3.03;;;;;;;;;;5051450;28;20235;-54
2022/08/02 03:23:58;;;;;;;4.10;2.97;;;;;;;;;;5051303;28;20196;-54
2022/08/02 03:26:24;;;;;;;7.37;3.43;;;;;;;;;;5051200;28;20200;-54
2022/08/02 03:28:52;;;;;;;8.00;3.10;;;;;;;;;;5051221;28;20203;-54
2022/08/02 03:31:18;;;;;;;4.40;2.93;;;;;;;;;;5051271;28;20211;-54
2022/08/02 03:33:44;;;;;;;4.03;3.20;;;;;;;;;;5051316;28;20196;-54
2022/08/02 03:36:12;;;;;;;4.70;3.30;;;;;;;;;;5051001;28;20285;-54
2022/08/02 03:38:38;;;;;;;5.63;3.47;;;;;;;;;;5051108;28;20748;-54
2022/08/02 03:41:05;;;;;;;5.10;3.20;;;;;;;;;;5051055;28;20219;-54
2022/08/02 03:43:31;;;;;;;5.40;3.40;;;;;;;;;;5051031;28;20243;-54
2022/08/02 03:45:59;;;;;;;7.73;3.27;;;;;;;;;;5050987;28;20208;-54
2022/08/02 03:48:26;;;;;;;5.60;3.10;;;;;;;;;;5050989;28;20291;-54
2022/08/02 03:50:52;;;;;;;3.50;3.20;;;;;;;;;;5050990;28;20724;-54
2022/08/02 03:53:18;;;;;;;4.17;3.13;;;;;;;;;;5051029;28;20275;-54
2022/08/02 03:55:45;;;;;;;6.93;3.23;;;;;;;;;;5051108;28;20224;-54
2022/08/02 03:58:16;;;;;;;10.53;3.67;;;;;;;;;;5053929;28;20265;-54
2022/08/02 04:00:42;;;;;;;6.43;3.50;;;;;;;;;;5054749;28;20200;-54
2022/08/02 04:03:09;;;;;;;5.77;3.57;;;;;;;;;;5054397;28;20246;-54
2022/08/02 04:05:35;;;;;;;5.10;3.33;;;;;;;;;;5054524;28;20207;-54
2022/08/02 04:08:01;;;;;;;4.97;3.50;;;;;;;;;;5054508;28;20196;-54
2022/08/02 04:10:27;;;;;;;6.23;3.47;;;;;;;;;;5054305;28;20201;-54
2022/08/02 04:12:54;;;;;;;5.80;2.90;;;;;;;;;;5054281;28;20207;-54
2022/08/02 04:15:20;;;;;;;7.37;3.73;;;;;;;;;;5054080;28;20243;-54
2022/08/02 04:17:49;;;;;;;5.73;3.70;;;;;;;;;;5054335;28;20207;-54
2022/08/02 04:20:18;;;;;;;6.13;4.07;;;;;;;;;;5054183;28;20673;-53
2022/08/02 04:22:46;;;;;;;8.20;4.30;;;;;;;;;;5054311;28;20246;-54
2022/08/02 04:25:13;;;;;;;8.70;4.20;;;;;;;;;;5054309;28;20188;-54
2022/08/02 04:27:40;;;;;;;7.30;4.07;;;;;;;;;;5054113;28;20196;-54
2022/08/02 04:30:07;;;;;;;8.90;3.87;;;;;;;;;;5053946;28;20204;-54
2022/08/02 04:32:33;;;;;;;8.37;4.33;;;;;;;;;;5054230;28;20646;-54
2022/08/02 04:34:59;;;;;;;9.03;3.70;;;;;;;;;;5054002;28;20228;-54
2022/08/02 04:37:26;;;;;;;7.90;3.97;;;;;;;;;;5053881;28;20200;-54
2022/08/02 04:39:52;;;;;;;5.17;3.63;;;;;;;;;;5053866;28;20543;-54
2022/08/02 04:42:22;;;;;;;6.93;3.93;;;;;;;;;;5053778;28;20198;-54
2022/08/02 04:44:48;;;;;;;5.40;3.67;;;;;;;;;;5053579;28;20336;-54
2022/08/02 04:47:14;;;;;;;7.20;3.37;;;;;;;;;;5053630;28;20207;-54
2022/08/02 04:49:40;;;;;;;7.77;4.00;;;;;;;;;;5053680;28;20224;-54
2022/08/02 04:52:06;;;;;;;6.83;3.40;;;;;;;;;;5053583;28;20674;-54
2022/08/02 04:54:34;;;;;;;8.37;3.90;;;;;;;;;;5053638;28;20542;-54
2022/08/02 04:57:00;;;;;;;9.00;3.97;;;;;;;;;;5053573;28;20319;-54
2022/08/02 04:59:26;;;;;;;7.30;3.70;;;;;;;;;;5053440;28;20300;-54
2022/08/02 05:01:52;;;;;;;10.33;3.70;;;;;;;;;;5053473;28;20390;-54
2022/08/02 05:04:18;;;;;;;10.80;4.03;;;;;;;;;;5053377;28;20235;-54
2022/08/02 05:06:44;;;;;;;5.33;3.60;;;;;;;;;;5053602;28;20258;-54
2022/08/02 05:09:10;;;;;;;7.93;3.10;;;;;;;;;;5053021;28;20200;-54
2022/08/02 05:11:37;;;;;;;8.53;4.40;;;;;;;;;;5053308;28;20196;-54
2022/08/02 05:14:03;;;;;;;7.83;2.93;;;;;;;;;;5053133;28;20215;-54
2022/08/02 05:16:29;;;;;;;5.70;3.33;;;;;;;;;;5053314;28;20227;-54
2022/08/02 05:18:55;;;;;;;7.20;3.07;;;;;;;;;;5053147;28;20208;-54
2022/08/02 05:21:21;;;;;;;5.87;3.30;;;;;;;;;;5053066;28;20200;-54
2022/08/02 05:23:47;;;;;;;7.20;2.83;;;;;;;;;;5053077;28;20222;-54
2022/08/02 05:26:13;;;;;;;4.30;2.57;;;;;;;;;;5053010;28;20212;-54
2022/08/02 05:28:40;;;;;;;7.67;2.97;;;;;;;;;;5053005;28;20207;-54
2022/08/02 05:31:06;;;;;;;8.17;3.00;;;;;;;;;;5052758;28;20204;-54
2022/08/02 05:33:32;;;;;;;7.10;2.37;;;;;;;;;;5052962;28;20302;-54
2022/08/02 05:35:58;;;;;;;11.83;2.97;;;;;;;;;;5052801;28;20228;-54
2022/08/02 05:38:25;;;;;;;8.70;2.80;;;;;;;;;;5052628;28;20291;-54
2022/08/02 05:40:51;;;;;;;5.67;2.70;;;;;;;;;;5052652;28;20257;-54
2022/08/02 05:43:17;;;;;;;7.80;2.97;;;;;;;;;;5052480;28;20240;-54
2022/08/02 05:45:44;;;;;;;9.00;2.53;;;;;;;;;;5052460;28;20650;-54
2022/08/02 05:48:10;;;;;;;7.80;2.80;;;;;;;;;;5052423;28;20204;-54
2022/08/02 05:50:37;;;;;;;4.33;2.23;;;;;;;;;;5052553;28;20203;-54
2022/08/02 05:53:08;;;;;;;8.07;2.77;;;;;;;;;;5052396;28;20578;-54
2022/08/02 05:55:34;;;;;;;6.30;2.40;;;;;;;;;;5052431;28;20239;-54
2022/08/02 05:58:03;;;;;;;7.63;2.30;;;;;;;;;;5052460;28;20651;-54
2022/08/02 06:00:30;;;;;;;7.17;2.10;;;;;;;;;;5052416;28;20200;-54
2022/08/02 06:03:04;;;;;;;4.77;2.37;;;;;;;;;;5052133;28;20206;-54
2022/08/02 06:05:32;;;;;;;6.23;2.47;;;;;;;;;;5052289;28;20295;-54
2022/08/02 06:07:58;;;;;;;6.13;2.13;;;;;;;;;;5052278;28;20283;-54
2022/08/02 06:10:26;;;;;;;5.43;2.33;;;;;;;;;;5052069;28;20212;-54
2022/08/02 06:12:55;;;;;;;4.97;2.00;;;;;;;;;;5052108;28;20235;-54
2022/08/02 06:15:21;;;;;;;5.93;2.40;;;;;;;;;;5051865;28;20289;-54
2022/08/02 06:17:47;;;;;;;6.30;2.50;;;;;;;;;;5052108;28;20662;-55
2022/08/02 06:20:15;;;;;;;6.67;2.50;;;;;;;;;;5051424;28;20283;-55
2022/08/02 06:22:44;;;;;;;6.80;2.20;;;;;;;;;;5051917;28;20272;-55
2022/08/02 06:25:11;;;;;;;7.10;2.40;;;;;;;;;;5051794;28;20197;-55
2022/08/02 06:27:37;;;;;;;7.60;2.47;;;;;;;;;;5051919;28;20531;-55
2022/08/02 06:30:04;;;;;;;6.27;2.73;;;;;;;;;;5051720;28;20200;-55
2022/08/02 06:32:31;;;;;;;8.80;2.80;;;;;;;;;;5051649;28;20197;-55
2022/08/02 06:34:57;;;;;;;4.43;2.40;;;;;;;;;;5051706;28;20208;-55
2022/08/02 06:37:26;;;;;;;13.23;2.80;;;;;;;;;;5051688;28;20223;-55
2022/08/02 06:39:56;;;;;;;5.50;2.20;;;;;;;;;;5051779;28;20227;-55
2022/08/02 06:42:26;;;;;;;8.60;2.70;;;;;;;;;;5051544;28;20296;-56
2022/08/02 06:44:52;;;;;;;6.20;2.47;;;;;;;;;;5051390;28;20232;-56
2022/08/02 06:47:18;;;;;;;9.70;2.70;;;;;;;;;;5051279;28;20200;-56
2022/08/02 06:49:44;;;;;;;3.97;2.30;;;;;;;;;;5051635;28;20280;-55
2022/08/02 06:52:10;;;;;;;6.50;2.40;;;;;;;;;;5051460;28;20223;-56
2022/08/02 06:54:40;;;;;;;6.93;2.33;;;;;;;;;;5051401;28;20207;-55
2022/08/02 06:57:08;;;;;;;5.13;2.17;;;;;;;;;;5051326;28;20236;-56
2022/08/02 06:59:34;;;;;;;5.93;2.27;;;;;;;;;;5051526;28;20540;-55
2022/08/02 07:02:01;;;;;;;8.53;2.60;;;;;;;;;;5051540;28;20236;-55
2022/08/02 07:04:27;;;;;;;7.10;2.83;;;;;;;;;;5051478;28;20609;-56
2022/08/02 07:06:54;;;;;;;7.17;2.43;;;;;;;;;;5051524;28;20553;-55
2022/08/02 07:09:20;;;;;;;9.97;3.13;;;;;;;;;;5051425;28;20201;-55
2022/08/02 07:11:47;;;;;;;6.90;2.30;;;;;;;;;;5051684;28;20248;-55
2022/08/02 07:14:13;;;;;;;6.87;2.50;;;;;;;;;;5051366;28;20720;-55
2022/08/02 07:16:39;;;;;;;7.90;3.10;;;;;;;;;;5051097;28;20372;-55
2022/08/02 07:19:05;;;;;;;8.77;2.80;;;;;;;;;;5051226;28;20199;-55
2022/08/02 07:21:31;;;;;;;7.80;2.97;;;;;;;;;;5051415;28;20232;-56
2022/08/02 07:23:57;;;;;;;8.53;2.83;;;;;;;;;;5051403;28;20208;-56
2022/08/02 07:26:23;;;;;;;6.43;2.60;;;;;;;;;;5051218;28;20222;-56
2022/08/02 07:28:50;;;;;;;10.73;2.83;;;;;;;;;;5051356;28;20285;-56
2022/08/02 07:31:16;;;;;;;8.60;3.00;;;;;;;;;;5051299;28;20664;-55
2022/08/02 07:33:42;;;;;;;10.47;2.83;;;;;;;;;;5055095;28;20203;-55
2022/08/02 07:36:08;;;;;;;8.57;3.00;;;;;;;;;;5054770;28;20287;-56
2022/08/02 07:38:34;;;;;;;6.33;3.10;;;;;;;;;;5055093;28;20196;-56
2022/08/02 07:41:00;;;;;;;5.33;2.40;;;;;;;;;;5054978;28;20218;-56
2022/08/02 07:43:26;;;;;;;8.37;3.10;;;;;;;;;;5054483;28;20743;-55
2022/08/02 07:45:54;;;;;;;5.33;2.40;;;;;;;;;;5054746;28;20216;-55
2022/08/02 07:48:20;;;;;;;4.97;2.40;;;;;;;;;;5054693;28;20575;-56
2022/08/02 07:50:47;;;;;;;9.07;2.90;;;;;;;;;;5054916;28;20690;-56
2022/08/02 07:53:13;;;;;;;7.50;2.87;;;;;;;;;;5054642;28;20203;-56
2022/08/02 07:55:39;;;;;;;6.93;2.50;;;;;;;;;;5054561;28;20729;-55
2022/08/02 07:58:05;;;;;;;11.00;3.33;;;;;;;;;;5054515;28;20196;-56
2022/08/02 08:00:31;;;;;;;5.07;2.40;;;;;;;;;;5054748;28;20555;-55
2022/08/02 08:02:59;;;;;;;6.77;2.90;;;;;;;;;;5054606;28;20295;-56
2022/08/02 08:05:25;;;;;;;5.80;2.67;;;;;;;;;;5054640;28;20200;-56
2022/08/02 08:07:51;;;;;;;9.07;2.83;;;;;;;;;;5054505;28;20250;-56
2022/08/02 08:10:17;;;;;;;7.07;2.87;;;;;;;;;;5054414;28;20694;-55
2022/08/02 08:12:43;;;;;;;4.43;2.23;;;;;;;;;;5054408;28;20210;-56
2022/08/02 08:15:09;;;;;;;8.53;2.70;;;;;;;;;;5054028;28;20196;-55
2022/08/02 08:17:36;;;;;;;6.00;2.40;;;;;;;;;;5054343;28;20204;-56
2022/08/02 08:20:04;;;;;;;5.77;2.60;;;;;;;;;;5054547;28;20195;-56
2022/08/02 08:22:30;;;;;;;5.33;2.63;;;;;;;;;;5054272;28;20214;-56
2022/08/02 08:24:56;;;;;;;7.20;2.70;;;;;;;;;;5054049;28;20291;-55
2022/08/02 08:27:22;;;;;;;5.47;2.80;;;;;;;;;;5054017;28;20206;-55
2022/08/02 08:29:48;;;;;;;10.50;3.50;;;;;;;;;;5054145;28;20200;-55
2022/08/02 08:32:14;;;;;;;4.43;2.53;;;;;;;;;;5053903;28;20663;-55
2022/08/02 08:34:40;;;;;;;7.57;3.00;;;;;;;;;;5054027;28;20203;-55
2022/08/02 08:37:08;;;;;;;10.27;2.77;;;;;;;;;;5053753;28;20229;-55
2022/08/02 08:39:34;;;;;;;7.97;2.87;;;;;;;;;;5053895;28;20208;-55
2022/08/02 08:42:00;;;;;;;5.40;2.70;;;;;;;;;;5053636;28;20207;-55
2022/08/02 08:44:26;;;;;;;6.93;2.63;;;;;;;;;;5053313;28;20240;-55
2022/08/02 08:46:53;;;;;;;4.97;2.47;;;;;;;;;;5053687;28;20392;-56
2022/08/02 08:49:22;;;;;;;6.97;2.67;;;;;;;;;;5053548;28;20236;-55
2022/08/02 08:51:49;;;;;;;4.40;2.30;;;;;;;;;;5053470;28;20663;-55
2022/08/02 08:54:17;;;;;;;6.80;2.40;;;;;;;;;;5053549;28;20201;-56
2022/08/02 08:56:43;;;;;;;11.83;2.77;;;;;;;;;;5053643;28;20224;-55
2022/08/02 08:59:09;;;;;;;6.73;2.47;;;;;;;;;;5053461;28;20212;-55
2022/08/02 09:01:35;;;;;;;7.67;3.07;;;;;;;;;;5053495;28;20196;-56
2022/08/02 09:04:01;;;;;;;4.03;2.27;;;;;;;;;;5053521;28;20204;-55
2022/08/02 09:06:27;;;;;;;6.77;2.77;;;;;;;;;;5053297;28;20202;-55
2022/08/02 09:08:53;;;;;;;5.20;2.20;;;;;;;;;;5053246;28;20671;-55
2022/08/02 09:11:22;;;;;;;4.23;2.07;;;;;;;;;;5053216;28;20289;-55
2022/08/02 09:13:50;;;;;;;6.27;2.40;;;;;;;;;;5053289;28;20211;-56
2022/08/02 09:16:26;;;;;;;4.37;2.43;;;;;;;;;;5053150;28;20237;-55
2022/08/02 09:18:52;;;;;;;4.67;2.37;;;;;;;;;;5053420;28;20194;-55
2022/08/02 09:21:18;;;;;;;6.80;2.20;;;;;;;;;;5053034;28;20656;-55
2022/08/02 09:23:45;;;;;;;5.17;2.23;;;;;;;;;;5053240;28;20218;-56
2022/08/02 09:26:11;;;;;;;4.43;2.10;;;;;;;;;;5052952;28;20253;-56
2022/08/02 09:28:39;;;;;;;3.90;2.00;;;;;;;;;;5053003;28;20298;-55
2022/08/02 09:31:06;;;;;;;4.27;2.17;;;;;;;;;;5052818;28;20369;-55
2022/08/02 09:33:33;;;;;;;6.63;2.10;;;;;;;;;;5052854;28;20210;-56
2022/08/02 09:35:59;;;;;;;4.00;2.13;;;;;;;;;;5052813;28;20692;-55
2022/08/02 09:38:25;;;;;;;3.73;1.87;;;;;;;;;;5052633;28;20199;-56
2022/08/02 09:40:51;;;;;;;3.63;1.67;;;;;;;;;;5052438;28;20665;-57
2022/08/02 09:43:19;;;;;;;2.63;1.57;;;;;;;;;;5052408;28;20236;-55
2022/08/02 09:45:46;;;;;;;4.50;1.80;;;;;;;;;;5052637;28;20216;-56
2022/08/02 09:48:13;;;;;;;5.97;1.80;;;;;;;;;;5052503;28;20204;-56
2022/08/02 09:50:41;;;;;;;4.90;2.07;;;;;;;;;;5052321;28;20589;-55
2022/08/02 09:53:12;;;;;;;5.13;2.07;;;;;;;;;;5052358;28;20730;-55
2022/08/02 09:55:38;;;;;;;4.77;2.07;;;;;;;;;;5051572;28;20228;-56
2022/08/02 09:58:16;;;;;;;2.70;1.60;;;;;;;;;;5052430;28;20210;-56
2022/08/02 10:00:52;;;;;;;4.30;2.23;;;;;;;;;;5052396;28;20196;-56
2022/08/02 10:03:18;;;;;;;4.53;2.20;;;;;;;;;;5052240;28;20204;-56
2022/08/02 10:05:48;;;;;;;5.97;2.30;;;;;;;;;;5052279;28;20254;-55
2022/08/02 10:08:14;;;;;;;5.17;2.47;;;;;;;;;;5052133;28;20233;-56
2022/08/02 10:10:40;;;;;;;6.60;2.00;;;;;;;;;;5052193;28;20197;-56
2022/08/02 10:13:07;;;;;;;5.63;2.50;;;;;;;;;;5052028;28;20224;-56
2022/08/02 10:15:33;;;;;;;3.97;2.13;;;;;;;;;;5052098;28;20233;-56
2022/08/02 10:18:00;;;;;;;4.47;2.07;;;;;;;;;;5052101;28;20656;-56
2022/08/02 10:20:27;;;;;;;3.93;2.40;;;;;;;;;;5051802;28;20297;-56
2022/08/02 10:22:53;;;;;;;4.57;2.00;;;;;;;;;;5051981;28;20202;-56
2022/08/02 10:25:19;;;;;;;4.40;2.10;;;;;;;;;;5051804;28;20272;-56
2022/08/02 10:27:45;;;;;;;5.30;2.20;;;;;;;;;;5051955;28;20358;-56
2022/08/02 10:30:12;;;;;;;4.90;1.60;;;;;;;;;;5051656;28;20632;-56
2022/08/02 10:32:40;;;;;;;2.27;1.60;;;;;;;;;;5051729;28;20773;-56
2022/08/02 10:35:10;;;;;;;4.50;1.87;;;;;;;;;;5051717;28;20213;-56
2022/08/02 10:37:38;;;;;;;2.53;1.50;;;;;;;;;;5051426;28;20578;-56
2022/08/02 10:40:04;;;;;;;4.33;1.93;;;;;;;;;;5051718;28;20206;-56
2022/08/02 10:42:48;;;;;;;3.23;1.80;;;;;;;;;;5051733;28;20192;-56
2022/08/02 10:45:16;;;;;;;3.20;1.80;;;;;;;;;;5051347;28;20241;-56
2022/08/02 10:47:56;;;;;;;4.00;1.87;;;;;;;;;;5051816;28;20212;-56
2022/08/02 10:50:46;;;;;;;4.53;1.60;;;;;;;;;;5051518;28;20195;-56
2022/08/02 10:53:20;;;;;;;2.47;1.50;;;;;;;;;;5051478;28;20219;-56
2022/08/02 10:55:46;;;;;;;3.07;1.57;;;;;;;;;;5051495;28;20560;-56
2022/08/02 10:58:16;;;;;;;3.40;1.97;;;;;;;;;;5051362;28;20199;-56
2022/08/02 11:00:42;;;;;;;7.57;2.17;;;;;;;;;;5051464;28;20543;-56
2022/08/02 11:03:32;;;;;;;4.10;1.63;;;;;;;;;;5051426;28;20670;-56
2022/08/02 11:06:01;;;;;;;6.43;1.90;;;;;;;;;;5053031;28;20286;-56
2022/08/02 11:08:29;;;;;;;3.60;1.63;;;;;;;;;;5055473;28;20207;-56
2022/08/02 11:10:58;;;;;;;2.43;1.70;;;;;;;;;;5055512;28;20249;-56
2022/08/02 11:13:25;;;;;;;3.60;1.80;;;;;;;;;;5055441;28;20203;-56
2022/08/02 11:15:57;;;;;;;4.03;1.77;;;;;;;;;;5055167;28;20576;-56
2022/08/02 11:18:43;;;;;;;3.30;1.60;;;;;;;;;;5055259;28;20200;-56
2022/08/02 11:21:22;;;;;;;6.37;1.90;;;;;;;;;;5055125;28;20286;-56
2022/08/02 11:23:49;;;;;;;3.13;1.40;;;;;;;;;;5055393;28;20197;-56
2022/08/02 11:26:34;;;;;;;3.20;1.80;;;;;;;;;;5055067;28;20663;-56
2022/08/02 11:29:01;;;;;;;3.50;1.83;;;;;;;;;;5055268;28;20192;-55
2022/08/02 11:31:27;;;;;;;1.83;1.60;;;;;;;;;;5054806;28;20296;-55
2022/08/02 11:33:53;;;;;;;4.70;1.40;;;;;;;;;;5055021;28;20197;-55
2022/08/02 11:36:19;;;;;;;3.03;1.63;;;;;;;;;;5036903;28;20564;-56
2022/08/02 11:38:45;;;;;;;3.63;1.50;;;;;;;;;;5055227;28;20220;-56
2022/08/02 11:41:19;;;;;;;4.03;1.60;;;;;;;;;;5054888;28;20698;-56
2022/08/02 11:43:45;;;;;;;2.77;1.70;;;;;;;;;;5055029;28;20248;-56
2022/08/02 11:46:12;;;;;;;3.07;1.47;;;;;;;;;;5054725;28;20286;-56
2022/08/02 11:48:39;;;;;;;4.03;1.80;;;;;;;;;;5054946;28;20201;-56
2022/08/02 11:51:06;;;;;;;4.40;1.73;;;;;;;;;;5054802;28;20189;-56
2022/08/02 11:53:34;;;;;;;5.03;1.70;;;;;;;;;;5054702;28;20198;-56
2022/08/02 11:56:00;;;;;;;2.70;1.57;;;;;;;;;;5054757;28;20307;-56
2022/08/02 11:58:27;;;;;;;4.87;1.90;;;;;;;;;;5054508;28;20310;-57
2022/08/02 12:00:53;;;;;;;3.90;1.53;;;;;;;;;;5054524;28;20680;-56
2022/08/02 12:03:19;;;;;;;5.37;1.70;;;;;;;;;;5054475;28;20211;-55
2022/08/02 12:05:48;;;;;;;3.73;2.07;;;;;;;;;;5054702;28;20199;-56
2022/08/02 12:08:14;;;;;;;2.77;2.07;;;;;;;;;;5054595;28;20246;-56
2022/08/02 12:10:46;;;;;;;5.83;2.20;;;;;;;;;;5054317;28;20263;-56
2022/08/02 12:13:12;;;;;;;3.23;2.10;;;;;;;;;;5054373;28;20215;-56
2022/08/02 12:15:41;;;;;;;3.57;2.00;;;;;;;;;;5054267;28;20723;-56
2022/08/02 12:20:53;;;;;;;3.43;2.13;;;;;;;;;;5054254;28;20195;-55
2022/08/02 12:23:19;;;;;;;3.60;1.77;;;;;;;;;;5054167;28;20579;-55
2022/08/02 12:25:45;;;;;;;3.07;1.70;;;;;;;;;;5054337;28;20194;-55
2022/08/02 12:28:15;;;;;;;2.90;1.90;;;;;;;;;;5054008;28;20304;-55
2022/08/02 12:30:56;;;;;;;2.07;1.70;;;;;;;;;;5053686;28;20663;-56
2022/08/02 12:33:23;;;;;;;2.90;1.80;;;;;;;;;;5053844;28;20205;-56
2022/08/02 12:35:49;;;;;;;3.03;2.03;;;;;;;;;;5053956;28;20231;-56
2022/08/02 12:38:15;;;;;;;3.37;1.80;;;;;;;;;;5053966;28;20675;-56
2022/08/02 12:40:41;;;;;;;4.53;1.77;;;;;;;;;;5053867;28;20194;-56
2022/08/02 12:43:08;;;;;;;3.93;1.93;;;;;;;;;;5053698;28;20209;-56
2022/08/02 12:45:45;;;;;;;3.10;1.73;;;;;;;;;;5053560;28;20218;-56
2022/08/02 12:48:12;;;;;;;2.73;1.60;;;;;;;;;;5053852;28;20202;-56
2022/08/02 12:50:38;;;;;;;1.93;1.73;;;;;;;;;;5053521;28;20543;-56
2022/08/02 12:53:05;;;;;;;2.10;1.70;;;;;;;;;;5053649;28;20574;-55
2022/08/02 12:55:32;;;;;;;2.13;1.87;;;;;;;;;;5053484;28;20629;-56
2022/08/02 12:57:59;;;;;;;2.50;1.90;;;;;;;;;;5053649;28;20216;-56
2022/08/02 13:00:26;;;;;;;2.70;1.67;;;;;;;;;;5053309;28;20543;-56
2022/08/02 13:02:52;;;;;;;2.30;1.90;;;;;;;;;;5053510;28;20228;-56
2022/08/02 13:05:19;;;;;;;5.27;1.87;;;;;;;;;;5053290;28;20234;-56
2022/08/02 13:07:45;;;;;;;2.83;1.67;;;;;;;;;;5053542;28;20237;-55
2022/08/02 13:10:11;;;;;;;3.73;2.00;;;;;;;;;;5053092;28;20242;-55
2022/08/02 13:12:38;;;;;;;4.67;1.77;;;;;;;;;;5053106;28;20234;-56
2022/08/02 13:15:05;;;;;;;3.23;2.10;;;;;;;;;;5053069;28;20202;-56
2022/08/02 13:17:31;;;;;;;2.23;1.90;;;;;;;;;;5053112;28;20233;-56
2022/08/02 13:19:56;;;;;;;2.40;1.97;;;;;;;;;;5053158;28;20251;-56
2022/08/02 13:22:24;;;;;;;4.23;2.17;;;;;;;;;;5052955;28;20227;-55
2022/08/02 13:24:50;;;;;;;6.53;2.13;;;;;;;;;;5053036;28;20205;-55
2022/08/02 13:27:16;;;;;;;5.03;2.07;;;;;;;;;;5053027;28;20219;-56
2022/08/02 13:29:43;;;;;;;2.00;1.80;;;;;;;;;;5052856;28;20220;-55
2022/08/02 13:32:09;;;;;;;3.23;1.70;;;;;;;;;;5052745;28;20254;-55
2022/08/02 13:34:35;;;;;;;3.93;1.90;;;;;;;;;;5052705;28;20203;-56
2022/08/02 13:37:01;;;;;;;2.43;1.90;;;;;;;;;;5052887;28;20253;-56
2022/08/02 13:39:29;;;;;;;1.70;1.60;;;;;;;;;;5052650;28;20205;-56
2022/08/02 13:41:55;;;;;;;3.43;1.60;;;;;;;;;;5052637;28;20211;-56
2022/08/02 13:44:21;;;;;;;3.93;1.73;;;;;;;;;;5052392;28;20294;-55
2022/08/02 13:46:47;;;;;;;2.33;1.67;;;;;;;;;;5052562;28;20201;-55
2022/08/02 13:49:14;;;;;;;2.93;1.87;;;;;;;;;;5052643;28;20544;-55
2022/08/02 13:51:40;;;;;;;2.03;1.77;;;;;;;;;;5052603;28;20220;-55
2022/08/02 13:54:06;;;;;;;2.07;1.80;;;;;;;;;;5052389;28;20266;-55
2022/08/02 13:56:33;;;;;;;3.40;1.80;;;;;;;;;;5052337;28;20230;-57
2022/08/02 13:58:59;;;;;;;3.10;1.80;;;;;;;;;;5052502;28;20200;-56
2022/08/02 14:01:25;;;;;;;2.87;1.80;;;;;;;;;;5052027;28;20196;-56
2022/08/02 14:03:53;;;;;;;2.17;1.70;;;;;;;;;;5052293;28;20268;-56
2022/08/02 14:06:18;;;;;;;2.13;1.83;;;;;;;;;;5052258;28;20188;-56
2022/08/02 14:08:44;;;;;;;4.13;1.90;;;;;;;;;;5052657;28;20200;-56
2022/08/02 14:11:10;;;;;;;2.30;1.87;;;;;;;;;;5052256;28;20206;-56
2022/08/02 14:13:38;;;;;;;2.47;1.70;;;;;;;;;;5052086;28;20665;-56
2022/08/02 14:16:04;;;;;;;2.00;1.53;;;;;;;;;;5051959;28;20591;-56
2022/08/02 14:18:30;;;;;;;4.73;1.80;;;;;;;;;;5052022;28;20226;-56
2022/08/02 14:20:56;;;;;;;2.50;1.50;;;;;;;;;;5052208;28;20199;-56
2022/08/02 14:23:22;;;;;;;2.50;1.77;;;;;;;;;;5052080;28;20188;-55
2022/08/02 14:25:49;;;;;;;2.47;1.87;;;;;;;;;;5051970;28;20683;-55
2022/08/02 14:28:15;;;;;;;2.23;1.67;;;;;;;;;;5051927;28;20669;-55
2022/08/02 14:30:42;;;;;;;2.20;1.60;;;;;;;;;;5051777;28;20603;-56
2022/08/02 14:33:09;;;;;;;2.70;1.40;;;;;;;;;;5051841;28;20299;-55
2022/08/02 14:35:35;;;;;;;4.27;1.80;;;;;;;;;;5051721;28;20184;-56
2022/08/02 14:38:01;;;;;;;2.63;1.50;;;;;;;;;;5051982;28;20195;-55
2022/08/02 14:40:27;;;;;;;1.90;1.77;;;;;;;;;;5051258;28;20186;-55
2022/08/02 14:42:53;;;;;;;2.53;1.60;;;;;;;;;;5051762;28;20193;-55
2022/08/02 14:45:21;;;;;;;2.17;1.77;;;;;;;;;;5051234;28;20242;-55
2022/08/02 14:47:48;;;;;;;2.77;1.60;;;;;;;;;;5051853;28;20315;-55